createdAt,value
2023-03-06T00:02:07.832Z,0.77
2023-03-06T00:06:09.453Z,0.87
2023-03-06T00:10:13.729Z,0.75
2023-03-06T00:14:15.135Z,0.75
2023-03-06T00:18:16.560Z,0.67
2023-03-06T00:22:17.955Z,0.66
2023-03-06T00:26:20.679Z,0.57
2023-03-06T00:30:22.888Z,0.70
2023-03-06T00:34:24.321Z,0.88
2023-03-06T00:38:25.708Z,0.64
2023-03-06T00:42:28.425Z,0.55
2023-03-06T00:46:29.836Z,0.58
2023-03-06T00:50:31.228Z,0.53
2023-03-06T00:54:32.578Z,0.45
2023-03-06T00:58:35.314Z,0.49
2023-03-06T01:02:36.699Z,0.64
2023-03-06T01:06:38.279Z,0.59
2023-03-06T01:10:39.764Z,0.50
2023-03-06T01:14:42.473Z,0.44
2023-03-06T01:18:43.911Z,0.45
2023-03-06T01:22:45.576Z,0.44
2023-03-06T01:26:46.925Z,0.47
2023-03-06T01:30:49.741Z,0.56
2023-03-06T01:34:51.140Z,0.63
2023-03-06T01:38:52.526Z,0.72
2023-03-06T01:42:53.957Z,0.63
2023-03-06T01:46:56.756Z,0.52
2023-03-06T01:50:58.111Z,0.57
2023-03-06T01:55:02.353Z,0.70
2023-03-06T01:59:04.454Z,0.56
2023-03-06T02:03:09.625Z,0.62
2023-03-06T02:07:11.316Z,0.62
2023-03-06T02:11:14.325Z,0.65
2023-03-06T02:15:17.695Z,0.67
2023-03-06T02:19:29.016Z,0.67
2023-03-06T02:23:33.560Z,0.70
2023-03-06T02:27:36.276Z,0.76
2023-03-06T02:31:37.712Z,0.64
2023-03-06T02:35:39.855Z,0.68
2023-03-06T02:39:42.686Z,0.77
2023-03-06T02:43:47.368Z,0.67
2023-03-06T02:47:48.952Z,0.58
2023-03-06T02:51:50.307Z,0.48
2023-03-06T02:55:51.697Z,0.47
2023-03-06T02:59:54.441Z,0.51
2023-03-06T03:03:55.827Z,0.57
2023-03-06T03:07:57.265Z,0.50
2023-03-06T03:11:58.605Z,0.44
2023-03-06T03:16:02.626Z,0.48
2023-03-06T03:20:04.932Z,0.50
2023-03-06T03:24:06.767Z,0.54
2023-03-06T03:28:08.143Z,0.57
2023-03-06T03:32:10.880Z,0.63
2023-03-06T03:36:12.309Z,0.56
2023-03-06T03:40:13.770Z,0.54
2023-03-06T03:44:15.126Z,0.52
2023-03-06T03:48:17.856Z,0.60
2023-03-06T03:52:19.200Z,0.49
2023-03-06T03:56:20.574Z,0.54
2023-03-06T04:00:21.999Z,0.53
2023-03-06T04:04:24.752Z,0.53
2023-03-06T04:08:26.476Z,0.48
2023-03-06T04:12:27.813Z,0.44
2023-03-06T04:16:29.311Z,0.44
2023-03-06T04:20:32.040Z,0.38
2023-03-06T04:24:33.397Z,0.42
2023-03-06T04:28:34.761Z,0.43
2023-03-06T04:32:36.485Z,0.47
2023-03-06T04:36:39.248Z,0.42
2023-03-06T04:40:40.628Z,0.51
2023-03-06T04:44:42.300Z,0.60
2023-03-06T04:48:44.019Z,0.48
2023-03-06T04:52:46.744Z,0.45
2023-03-06T04:56:48.164Z,0.48
2023-03-06T05:00:49.616Z,0.52
2023-03-06T05:04:51.006Z,0.45
2023-03-06T05:08:53.812Z,0.45
2023-03-06T05:12:55.154Z,0.44
2023-03-06T05:16:56.529Z,0.42
2023-03-06T05:20:57.930Z,0.47
2023-03-06T05:25:00.703Z,0.39
2023-03-06T05:29:02.056Z,0.37
2023-03-06T05:33:03.529Z,0.36
2023-03-06T05:37:05.045Z,0.56
2023-03-06T05:41:10.677Z,0.52
2023-03-06T05:45:12.285Z,0.44
2023-03-06T05:49:13.620Z,0.36
2023-03-06T05:53:14.965Z,0.45
2023-03-06T05:57:18.477Z,0.56
2023-03-06T06:01:20.988Z,0.52
2023-03-06T06:05:22.372Z,0.54
2023-03-06T06:09:23.929Z,0.67
2023-03-06T06:13:26.701Z,0.72
2023-03-06T06:17:28.062Z,0.75
2023-03-06T06:21:29.406Z,0.98
2023-03-06T06:25:31.083Z,0.98
2023-03-06T06:29:34.053Z,1.03
2023-03-06T06:33:35.402Z,1.04
2023-03-06T06:37:36.749Z,1.06
2023-03-06T06:42:09.518Z,1.13
2023-03-06T06:46:24.222Z,1.13
2023-03-06T06:50:22.120Z,1.43
2023-03-06T06:54:23.504Z,1.67
2023-03-06T06:58:25.017Z,1.85
2023-03-06T07:02:27.816Z,1.98
2023-03-06T07:06:29.220Z,2.03
2023-03-06T07:10:30.564Z,2.19
2023-03-06T07:14:32.012Z,2.40
2023-03-06T07:18:34.727Z,2.41
2023-03-06T07:22:49.845Z,2.81
2023-03-06T07:26:52.173Z,2.98
2023-03-06T07:30:53.606Z,3.24
2023-03-06T07:35:12.927Z,3.32
2023-03-06T07:39:17.845Z,3.39
2023-03-06T07:43:19.805Z,3.35
2023-03-06T07:47:21.176Z,3.33
2023-03-06T07:51:23.870Z,3.47
2023-03-06T07:55:25.214Z,3.59
2023-03-06T07:59:26.563Z,3.74
2023-03-06T08:03:27.928Z,3.90
2023-03-06T08:07:30.921Z,4.23
2023-03-06T08:11:32.310Z,4.32
2023-03-06T08:15:33.697Z,4.04
2023-03-06T08:19:35.078Z,4.14
2023-03-06T08:23:38.010Z,4.21
2023-03-06T08:27:39.758Z,4.39
2023-03-06T08:31:42.258Z,4.43
2023-03-06T08:35:43.724Z,4.15
2023-03-06T08:39:46.506Z,4.26
2023-03-06T08:43:47.979Z,4.05
2023-03-06T08:47:49.321Z,4.14
2023-03-06T08:51:50.701Z,4.10
2023-03-06T08:55:53.442Z,4.31
2023-03-06T08:59:54.915Z,4.44
2023-03-06T09:03:57.398Z,4.48
2023-03-06T09:07:58.827Z,4.49
2023-03-06T09:12:01.757Z,4.38
2023-03-06T09:16:03.177Z,4.28
2023-03-06T09:20:05.771Z,4.61
2023-03-06T09:24:07.429Z,4.74
2023-03-06T09:28:11.991Z,4.69
2023-03-06T09:32:13.684Z,4.52
2023-03-06T09:36:16.124Z,4.36
2023-03-06T09:40:20.777Z,3.97
2023-03-06T09:44:25.070Z,4.17
2023-03-06T09:48:34.160Z,4.54
2023-03-06T09:52:40.079Z,4.78
2023-03-06T09:56:45.725Z,4.69
2023-03-06T10:00:55.351Z,5.08
2023-03-06T10:05:00.224Z,5.47
2023-03-06T10:09:04.319Z,5.74
2023-03-06T10:13:10.133Z,5.49
2023-03-06T10:17:16.450Z,5.50
2023-03-06T10:21:28.068Z,5.38
2023-03-06T10:25:31.852Z,5.52
2023-03-06T10:29:39.115Z,5.57
2023-03-06T10:33:48.022Z,5.82
2023-03-06T10:37:49.380Z,5.91
2023-03-06T10:41:50.739Z,5.95
2023-03-06T10:45:52.943Z,6.35
2023-03-06T10:50:00.083Z,6.62
2023-03-06T10:54:02.885Z,6.63
2023-03-06T10:58:22.077Z,6.72
2023-03-06T11:02:24.889Z,6.77
2023-03-06T11:06:34.564Z,6.83
2023-03-06T11:10:35.968Z,6.71
2023-03-06T11:14:37.292Z,6.62
2023-03-06T11:18:39.967Z,6.73
2023-03-06T11:22:44.260Z,6.65
2023-03-06T11:26:48.039Z,6.52
2023-03-06T11:30:51.731Z,6.45
2023-03-06T11:34:54.572Z,6.66
2023-03-06T11:38:57.325Z,6.85
2023-03-06T11:43:02.716Z,6.98
2023-03-06T11:47:08.585Z,6.76
2023-03-06T11:51:13.944Z,6.85
2023-03-06T11:55:22.137Z,6.71
2023-03-06T11:59:49.992Z,6.65
2023-03-06T12:03:56.333Z,6.74
2023-03-06T12:08:03.154Z,6.90
2023-03-06T12:12:10.789Z,7.11
2023-03-06T12:16:28.009Z,7.10
2023-03-06T12:20:42.457Z,7.09
2023-03-06T12:24:58.578Z,7.19
2023-03-06T12:29:10.713Z,7.26
2023-03-06T12:33:17.586Z,7.13
2023-03-06T12:37:22.570Z,6.86
2023-03-06T12:41:27.415Z,6.97
2023-03-06T12:45:34.049Z,7.09
2023-03-06T12:49:36.917Z,6.90
2023-03-06T12:53:40.168Z,6.44
2023-03-06T12:57:41.527Z,6.01
2023-03-06T13:01:51.214Z,5.69
2023-03-06T13:06:10.494Z,5.50
2023-03-06T13:10:20.079Z,5.50
2023-03-06T13:14:22.582Z,5.23
2023-03-06T13:18:48.981Z,5.14
2023-03-06T13:22:50.327Z,5.13
2023-03-06T13:26:56.221Z,5.12
2023-03-06T13:30:57.595Z,5.11
2023-03-06T13:35:00.395Z,4.97
2023-03-06T13:39:08.458Z,5.15
2023-03-06T13:43:21.527Z,5.35
2023-03-06T13:47:35.706Z,5.41
2023-03-06T13:51:43.443Z,5.67
2023-03-06T13:55:49.625Z,5.72
2023-03-06T14:00:09.968Z,5.81
2023-03-06T14:04:29.493Z,5.90
2023-03-06T14:08:32.554Z,5.80
2023-03-06T14:12:34.978Z,5.74
2023-03-06T14:16:49.231Z,5.88
2023-03-06T14:20:54.482Z,5.88
2023-03-06T14:25:02.633Z,5.67
2023-03-06T14:29:04.032Z,5.68
2023-03-06T14:33:10.526Z,5.61
2023-03-06T14:37:19.329Z,5.76
2023-03-06T14:41:27.549Z,5.62
2023-03-06T14:45:28.985Z,5.63
2023-03-06T14:49:30.347Z,5.41
2023-03-06T14:53:32.691Z,5.35
2023-03-06T14:57:35.520Z,5.19
2023-03-06T15:01:38.037Z,5.25
2023-03-06T15:05:40.445Z,5.39
2023-03-06T15:09:43.906Z,5.46
2023-03-06T15:13:59.394Z,5.48
2023-03-06T15:18:00.975Z,5.36
2023-03-06T15:22:02.353Z,5.29
2023-03-06T15:26:14.471Z,5.04
2023-03-06T15:30:22.933Z,4.93
2023-03-06T15:34:24.323Z,4.93
2023-03-06T15:38:35.391Z,4.87
2023-03-06T15:42:36.780Z,4.69
2023-03-06T15:46:39.724Z,4.56
2023-03-06T15:50:41.123Z,4.59
2023-03-06T15:54:42.481Z,4.49
2023-03-06T15:58:43.854Z,4.61
2023-03-06T16:02:46.595Z,4.55
2023-03-06T16:06:47.952Z,4.67
2023-03-06T16:10:49.773Z,4.63
2023-03-06T16:14:51.119Z,4.58
2023-03-06T16:18:53.858Z,4.48
2023-03-06T16:22:55.590Z,4.51
2023-03-06T16:26:58.696Z,4.41
2023-03-06T16:31:00.083Z,4.36
2023-03-06T16:35:02.837Z,4.33
2023-03-06T16:39:04.545Z,4.20
2023-03-06T16:43:05.893Z,4.30
2023-03-06T16:47:10.214Z,4.33
2023-03-06T16:51:14.728Z,4.02
2023-03-06T16:55:16.184Z,3.81
2023-03-06T16:59:17.685Z,3.71
2023-03-06T17:03:19.045Z,3.66
2023-03-06T17:07:21.768Z,3.69
2023-03-06T17:11:23.194Z,3.54
2023-03-06T17:15:24.542Z,3.69
2023-03-06T17:19:25.888Z,3.67
2023-03-06T17:23:28.830Z,3.81
2023-03-06T17:27:30.191Z,3.79
2023-03-06T17:31:31.868Z,3.60
2023-03-06T17:35:34.119Z,3.61
2023-03-06T17:39:38.066Z,3.48
2023-03-06T17:43:39.544Z,3.31
2023-03-06T17:47:40.937Z,3.35
2023-03-06T17:51:42.348Z,3.36
2023-03-06T17:55:45.057Z,3.46
2023-03-06T17:59:46.529Z,3.45
2023-03-06T18:03:49.260Z,3.32
2023-03-06T18:07:50.741Z,3.41
2023-03-06T18:11:53.508Z,3.38
2023-03-06T18:15:54.853Z,3.30
2023-03-06T18:19:56.355Z,3.36
2023-03-06T18:23:57.720Z,3.29
2023-03-06T18:28:00.640Z,3.18
2023-03-06T18:32:02.195Z,3.18
2023-03-06T18:36:03.907Z,3.27
2023-03-06T18:40:05.810Z,3.30
2023-03-06T18:44:08.746Z,3.22
2023-03-06T18:48:10.121Z,3.18
2023-03-06T18:52:11.594Z,3.23
2023-03-06T18:56:15.374Z,3.22
2023-03-06T19:00:18.955Z,3.26
2023-03-06T19:04:20.307Z,3.20
2023-03-06T19:08:21.696Z,3.24
2023-03-06T19:12:23.042Z,3.20
2023-03-06T19:16:26.781Z,3.19
2023-03-06T19:20:28.165Z,3.21
2023-03-06T19:24:29.544Z,3.14
2023-03-06T19:28:30.896Z,3.19
2023-03-06T19:32:33.625Z,3.09
2023-03-06T19:36:35.498Z,3.06
2023-03-06T19:40:36.954Z,3.14
2023-03-06T19:44:38.279Z,3.12
2023-03-06T19:48:41.407Z,3.12
2023-03-06T19:52:42.764Z,3.22
2023-03-06T19:56:44.122Z,3.22
2023-03-06T20:00:45.461Z,3.12
2023-03-06T20:04:48.232Z,3.18
2023-03-06T20:08:49.614Z,2.92
2023-03-06T20:12:50.931Z,2.86
2023-03-06T20:16:52.368Z,2.75
2023-03-06T20:20:58.913Z,2.70
2023-03-06T20:25:00.262Z,2.66
2023-03-06T20:29:01.606Z,2.60
2023-03-06T20:33:02.981Z,2.66
2023-03-06T20:37:05.704Z,2.66
2023-03-06T20:41:07.055Z,2.76
2023-03-06T20:45:08.901Z,2.90
2023-03-06T20:49:11.020Z,2.92
2023-03-06T20:53:13.734Z,2.93
2023-03-06T20:57:15.075Z,2.89
2023-03-06T21:01:19.483Z,3.16
2023-03-06T21:05:20.861Z,3.05
2023-03-06T21:09:23.570Z,2.89
2023-03-06T21:13:24.936Z,2.76
2023-03-06T21:17:27.198Z,2.82
2023-03-06T21:21:29.984Z,2.79
2023-03-06T21:25:32.724Z,2.88
2023-03-06T21:29:34.057Z,2.80
2023-03-06T21:33:36.017Z,2.93
2023-03-06T21:37:37.404Z,3.11
2023-03-06T21:41:40.307Z,2.99
2023-03-06T21:45:43.143Z,2.93
2023-03-06T21:49:44.594Z,2.95
2023-03-06T21:53:46.826Z,2.91
2023-03-06T21:57:50.818Z,2.87
2023-03-06T22:01:52.217Z,2.85
2023-03-06T22:05:53.548Z,2.87
2023-03-06T22:09:54.948Z,2.92
2023-03-06T22:13:57.668Z,2.92
2023-03-06T22:17:59.010Z,2.72
2023-03-06T22:22:00.359Z,2.83
2023-03-06T22:26:02.116Z,2.78
2023-03-06T22:30:05.310Z,2.74
2023-03-06T22:34:06.653Z,2.75
2023-03-06T22:38:08.003Z,2.74
2023-03-06T22:42:09.356Z,2.70
2023-03-06T22:46:12.883Z,2.80
2023-03-06T22:50:14.273Z,2.67
2023-03-06T22:54:15.650Z,2.48
2023-03-06T22:58:16.980Z,2.40
2023-03-06T23:02:19.677Z,2.34
2023-03-06T23:06:22.003Z,2.33
2023-03-06T23:10:23.370Z,2.33
2023-03-06T23:14:24.778Z,2.38
2023-03-06T23:18:28.976Z,2.37
2023-03-06T23:22:30.314Z,2.39
2023-03-06T23:26:32.083Z,2.35
2023-03-06T23:30:33.525Z,2.34
2023-03-06T23:34:36.235Z,2.34
2023-03-06T23:38:37.619Z,2.37
2023-03-06T23:42:39.260Z,2.39
2023-03-06T23:46:40.663Z,2.42
2023-03-06T23:50:43.466Z,2.47
2023-03-06T23:54:44.800Z,2.56
2023-03-06T23:58:46.156Z,2.58
